sensor_id;sensor_type;location;lat;lon;timestamp;P1;durP1;ratioP1;P2;durP2;ratioP2
60464;SDS011;46314;52.392;9.758;2023-11-19T00:01:25;2.65;;;1.60;;
60464;SDS011;46314;52.392;9.758;2023-11-19T00:03:51;1.60;;;1.45;;
60464;SDS011;46314;52.392;9.758;2023-11-19T00:06:18;3.28;;;1.70;;
60464;SDS011;46314;52.392;9.758;2023-11-19T00:08:45;2.20;;;1.80;;
60464;SDS011;46314;52.392;9.758;2023-11-19T00:11:11;4.00;;;1.80;;
60464;SDS011;46314;52.392;9.758;2023-11-19T00:13:38;3.17;;;1.60;;
60464;SDS011;46314;52.392;9.758;2023-11-19T00:16:05;2.38;;;1.70;;
60464;SDS011;46314;52.392;9.758;2023-11-19T00:18:34;1.70;;;1.60;;
60464;SDS011;46314;52.392;9.758;2023-11-19T00:21:00;2.22;;;1.52;;
60464;SDS011;46314;52.392;9.758;2023-11-19T00:23:27;2.03;;;1.63;;
60464;SDS011;46314;52.392;9.758;2023-11-19T00:25:53;2.42;;;1.88;;
60464;SDS011;46314;52.392;9.758;2023-11-19T00:28:20;1.95;;;1.70;;
60464;SDS011;46314;52.392;9.758;2023-11-19T00:30:46;2.60;;;2.00;;
60464;SDS011;46314;52.392;9.758;2023-11-19T00:33:13;2.30;;;2.05;;
60464;SDS011;46314;52.392;9.758;2023-11-19T00:35:40;2.65;;;1.73;;
60464;SDS011;46314;52.392;9.758;2023-11-19T00:38:07;2.35;;;1.77;;
60464;SDS011;46314;52.392;9.758;2023-11-19T00:40:33;4.18;;;1.90;;
60464;SDS011;46314;52.392;9.758;2023-11-19T00:43:00;2.72;;;2.00;;
60464;SDS011;46314;52.392;9.758;2023-11-19T00:45:27;2.05;;;1.85;;
60464;SDS011;46314;52.392;9.758;2023-11-19T00:47:53;4.03;;;2.38;;
60464;SDS011;46314;52.392;9.758;2023-11-19T00:50:20;2.83;;;1.98;;
60464;SDS011;46314;52.392;9.758;2023-11-19T00:52:47;4.45;;;1.95;;
60464;SDS011;46314;52.392;9.758;2023-11-19T00:55:14;2.83;;;2.17;;
60464;SDS011;46314;52.392;9.758;2023-11-19T00:57:41;2.55;;;1.67;;
60464;SDS011;46314;52.392;9.758;2023-11-19T01:00:08;2.97;;;2.10;;
60464;SDS011;46314;52.392;9.758;2023-11-19T01:02:35;3.15;;;1.83;;
60464;SDS011;46314;52.392;9.758;2023-11-19T01:05:02;2.10;;;1.75;;
60464;SDS011;46314;52.392;9.758;2023-11-19T01:07:28;2.13;;;1.70;;
60464;SDS011;46314;52.392;9.758;2023-11-19T01:09:56;1.77;;;1.65;;
60464;SDS011;46314;52.392;9.758;2023-11-19T01:12:23;2.38;;;2.17;;
60464;SDS011;46314;52.392;9.758;2023-11-19T01:14:49;2.00;;;1.73;;
60464;SDS011;46314;52.392;9.758;2023-11-19T01:17:16;3.97;;;1.80;;
60464;SDS011;46314;52.392;9.758;2023-11-19T01:19:43;3.97;;;2.53;;
60464;SDS011;46314;52.392;9.758;2023-11-19T01:22:09;2.70;;;2.00;;
60464;SDS011;46314;52.392;9.758;2023-11-19T01:24:36;3.28;;;2.15;;
60464;SDS011;46314;52.392;9.758;2023-11-19T01:27:04;2.55;;;1.80;;
60464;SDS011;46314;52.392;9.758;2023-11-19T01:29:30;3.58;;;2.10;;
60464;SDS011;46314;52.392;9.758;2023-11-19T01:31:57;3.55;;;1.80;;
60464;SDS011;46314;52.392;9.758;2023-11-19T01:34:23;1.75;;;1.60;;
60464;SDS011;46314;52.392;9.758;2023-11-19T01:36:50;3.45;;;1.80;;
60464;SDS011;46314;52.392;9.758;2023-11-19T01:39:16;2.80;;;2.25;;
60464;SDS011;46314;52.392;9.758;2023-11-19T01:41:43;4.95;;;1.90;;
60464;SDS011;46314;52.392;9.758;2023-11-19T01:44:11;2.13;;;1.33;;
60464;SDS011;46314;52.392;9.758;2023-11-19T01:46:37;2.90;;;1.77;;
60464;SDS011;46314;52.392;9.758;2023-11-19T01:49:04;1.88;;;1.60;;
60464;SDS011;46314;52.392;9.758;2023-11-19T01:51:32;1.85;;;1.55;;
60464;SDS011;46314;52.392;9.758;2023-11-19T01:53:58;2.10;;;1.48;;
60464;SDS011;46314;52.392;9.758;2023-11-19T01:56:25;1.85;;;1.60;;
60464;SDS011;46314;52.392;9.758;2023-11-19T01:58:53;2.60;;;1.33;;
60464;SDS011;46314;52.392;9.758;2023-11-19T02:01:22;2.08;;;1.50;;
60464;SDS011;46314;52.392;9.758;2023-11-19T02:03:48;1.85;;;1.52;;
60464;SDS011;46314;52.392;9.758;2023-11-19T02:06:15;1.98;;;1.30;;
60464;SDS011;46314;52.392;9.758;2023-11-19T02:08:42;1.60;;;1.50;;
60464;SDS011;46314;52.392;9.758;2023-11-19T02:11:08;1.70;;;1.40;;
60464;SDS011;46314;52.392;9.758;2023-11-19T02:13:36;2.33;;;1.60;;
60464;SDS011;46314;52.392;9.758;2023-11-19T02:16:04;1.75;;;1.63;;
60464;SDS011;46314;52.392;9.758;2023-11-19T02:18:32;2.50;;;1.60;;
60464;SDS011;46314;52.392;9.758;2023-11-19T02:20:58;2.42;;;2.00;;
60464;SDS011;46314;52.392;9.758;2023-11-19T02:23:26;1.98;;;1.40;;
60464;SDS011;46314;52.392;9.758;2023-11-19T02:25:59;3.80;;;1.50;;
60464;SDS011;46314;52.392;9.758;2023-11-19T02:28:30;1.95;;;1.50;;
60464;SDS011;46314;52.392;9.758;2023-11-19T02:30:57;2.42;;;1.27;;
60464;SDS011;46314;52.392;9.758;2023-11-19T02:33:24;1.88;;;1.27;;
60464;SDS011;46314;52.392;9.758;2023-11-19T02:35:50;1.90;;;1.70;;
60464;SDS011;46314;52.392;9.758;2023-11-19T02:38:16;1.20;;;1.00;;
60464;SDS011;46314;52.392;9.758;2023-11-19T02:40:43;1.92;;;0.95;;
60464;SDS011;46314;52.392;9.758;2023-11-19T02:43:09;1.10;;;1.00;;
60464;SDS011;46314;52.392;9.758;2023-11-19T02:45:37;1.45;;;1.10;;
60464;SDS011;46314;52.392;9.758;2023-11-19T02:48:04;7.65;;;1.10;;
60464;SDS011;46314;52.392;9.758;2023-11-19T02:50:30;1.20;;;0.90;;
60464;SDS011;46314;52.392;9.758;2023-11-19T02:52:57;1.40;;;0.90;;
60464;SDS011;46314;52.392;9.758;2023-11-19T02:55:23;2.08;;;0.90;;
60464;SDS011;46314;52.392;9.758;2023-11-19T02:57:51;2.17;;;1.10;;
60464;SDS011;46314;52.392;9.758;2023-11-19T03:00:18;1.02;;;0.82;;
60464;SDS011;46314;52.392;9.758;2023-11-19T03:02:48;1.65;;;0.95;;
60464;SDS011;46314;52.392;9.758;2023-11-19T03:05:15;0.82;;;0.73;;
60464;SDS011;46314;52.392;9.758;2023-11-19T03:07:41;1.25;;;1.00;;
60464;SDS011;46314;52.392;9.758;2023-11-19T03:10:08;1.13;;;1.02;;
60464;SDS011;46314;52.392;9.758;2023-11-19T03:12:35;1.00;;;0.90;;
60464;SDS011;46314;52.392;9.758;2023-11-19T03:15:01;1.65;;;1.17;;
60464;SDS011;46314;52.392;9.758;2023-11-19T03:17:28;2.08;;;1.10;;
60464;SDS011;46314;52.392;9.758;2023-11-19T03:19:57;1.77;;;0.98;;
60464;SDS011;46314;52.392;9.758;2023-11-19T03:22:23;1.63;;;0.77;;
60464;SDS011;46314;52.392;9.758;2023-11-19T03:24:50;1.50;;;1.00;;
60464;SDS011;46314;52.392;9.758;2023-11-19T03:27:17;2.00;;;0.90;;
60464;SDS011;46314;52.392;9.758;2023-11-19T03:29:43;1.85;;;1.35;;
60464;SDS011;46314;52.392;9.758;2023-11-19T03:32:10;0.95;;;0.90;;
60464;SDS011;46314;52.392;9.758;2023-11-19T03:34:36;0.80;;;0.80;;
60464;SDS011;46314;52.392;9.758;2023-11-19T03:37:04;1.40;;;1.00;;
60464;SDS011;46314;52.392;9.758;2023-11-19T03:39:31;1.50;;;1.10;;
60464;SDS011;46314;52.392;9.758;2023-11-19T03:41:57;1.27;;;1.17;;
60464;SDS011;46314;52.392;9.758;2023-11-19T03:44:23;3.30;;;1.70;;
60464;SDS011;46314;52.392;9.758;2023-11-19T03:46:51;1.50;;;1.13;;
60464;SDS011;46314;52.392;9.758;2023-11-19T03:49:18;1.52;;;1.20;;
60464;SDS011;46314;52.392;9.758;2023-11-19T03:51:45;2.25;;;1.10;;
60464;SDS011;46314;52.392;9.758;2023-11-19T03:54:12;2.50;;;1.33;;
60464;SDS011;46314;52.392;9.758;2023-11-19T03:56:39;4.25;;;1.40;;
60464;SDS011;46314;52.392;9.758;2023-11-19T03:59:05;2.08;;;1.50;;
60464;SDS011;46314;52.392;9.758;2023-11-19T04:01:32;1.30;;;1.10;;
60464;SDS011;46314;52.392;9.758;2023-11-19T04:03:58;1.27;;;1.15;;
60464;SDS011;46314;52.392;9.758;2023-11-19T04:06:25;1.67;;;1.55;;
60464;SDS011;46314;52.392;9.758;2023-11-19T04:08:52;2.30;;;1.55;;
60464;SDS011;46314;52.392;9.758;2023-11-19T04:11:20;2.30;;;1.60;;
60464;SDS011;46314;52.392;9.758;2023-11-19T04:13:46;1.35;;;1.25;;
60464;SDS011;46314;52.392;9.758;2023-11-19T04:16:13;1.95;;;1.50;;
60464;SDS011;46314;52.392;9.758;2023-11-19T04:18:40;1.90;;;1.70;;
60464;SDS011;46314;52.392;9.758;2023-11-19T04:21:07;2.20;;;1.90;;
60464;SDS011;46314;52.392;9.758;2023-11-19T04:23:33;2.08;;;1.88;;
60464;SDS011;46314;52.392;9.758;2023-11-19T04:26:01;2.40;;;2.20;;
60464;SDS011;46314;52.392;9.758;2023-11-19T04:28:32;2.05;;;1.70;;
60464;SDS011;46314;52.392;9.758;2023-11-19T04:30:59;2.58;;;2.08;;
60464;SDS011;46314;52.392;9.758;2023-11-19T04:33:25;2.78;;;2.50;;
60464;SDS011;46314;52.392;9.758;2023-11-19T04:35:52;4.43;;;2.30;;
60464;SDS011;46314;52.392;9.758;2023-11-19T04:38:18;3.75;;;2.33;;
60464;SDS011;46314;52.392;9.758;2023-11-19T04:40:45;2.78;;;1.83;;
60464;SDS011;46314;52.392;9.758;2023-11-19T04:43:11;3.45;;;2.47;;
60464;SDS011;46314;52.392;9.758;2023-11-19T04:45:39;4.85;;;2.50;;
60464;SDS011;46314;52.392;9.758;2023-11-19T04:48:06;4.38;;;3.15;;
60464;SDS011;46314;52.392;9.758;2023-11-19T04:50:32;4.60;;;3.35;;
60464;SDS011;46314;52.392;9.758;2023-11-19T04:52:58;5.88;;;3.40;;
60464;SDS011;46314;52.392;9.758;2023-11-19T04:55:26;3.55;;;3.13;;
60464;SDS011;46314;52.392;9.758;2023-11-19T04:57:53;5.55;;;3.38;;
60464;SDS011;46314;52.392;9.758;2023-11-19T05:00:20;4.53;;;3.67;;
60464;SDS011;46314;52.392;9.758;2023-11-19T05:02:50;5.53;;;4.22;;
60464;SDS011;46314;52.392;9.758;2023-11-19T05:05:17;6.15;;;3.97;;
60464;SDS011;46314;52.392;9.758;2023-11-19T05:07:44;5.60;;;4.43;;
60464;SDS011;46314;52.392;9.758;2023-11-19T05:10:11;5.15;;;3.90;;
60464;SDS011;46314;52.392;9.758;2023-11-19T05:12:37;7.40;;;5.35;;
60464;SDS011;46314;52.392;9.758;2023-11-19T05:15:04;8.80;;;5.22;;
60464;SDS011;46314;52.392;9.758;2023-11-19T05:17:32;7.07;;;4.97;;
60464;SDS011;46314;52.392;9.758;2023-11-19T05:20:00;6.05;;;4.63;;
60464;SDS011;46314;52.392;9.758;2023-11-19T05:22:27;9.32;;;6.22;;
60464;SDS011;46314;52.392;9.758;2023-11-19T05:24:53;6.18;;;3.30;;
60464;SDS011;46314;52.392;9.758;2023-11-19T05:27:20;6.68;;;4.70;;
60464;SDS011;46314;52.392;9.758;2023-11-19T05:29:46;8.98;;;4.32;;
60464;SDS011;46314;52.392;9.758;2023-11-19T05:32:12;9.63;;;6.75;;
60464;SDS011;46314;52.392;9.758;2023-11-19T05:34:39;6.70;;;4.53;;
60464;SDS011;46314;52.392;9.758;2023-11-19T05:37:19;8.82;;;5.53;;
60464;SDS011;46314;52.392;9.758;2023-11-19T05:39:46;9.82;;;6.75;;
60464;SDS011;46314;52.392;9.758;2023-11-19T05:42:12;11.73;;;7.93;;
60464;SDS011;46314;52.392;9.758;2023-11-19T05:44:39;13.52;;;6.38;;
60464;SDS011;46314;52.392;9.758;2023-11-19T05:47:07;12.30;;;8.00;;
60464;SDS011;46314;52.392;9.758;2023-11-19T05:49:34;9.07;;;5.53;;
60464;SDS011;46314;52.392;9.758;2023-11-19T05:52:00;12.65;;;8.00;;
60464;SDS011;46314;52.392;9.758;2023-11-19T05:54:28;15.98;;;8.90;;
60464;SDS011;46314;52.392;9.758;2023-11-19T05:56:57;11.77;;;8.93;;
60464;SDS011;46314;52.392;9.758;2023-11-19T05:59:23;10.68;;;8.30;;
60464;SDS011;46314;52.392;9.758;2023-11-19T06:01:50;16.80;;;9.93;;
60464;SDS011;46314;52.392;9.758;2023-11-19T06:04:16;15.57;;;10.07;;
60464;SDS011;46314;52.392;9.758;2023-11-19T06:06:43;17.00;;;9.75;;
60464;SDS011;46314;52.392;9.758;2023-11-19T06:09:09;14.05;;;10.20;;
60464;SDS011;46314;52.392;9.758;2023-11-19T06:11:41;13.90;;;8.90;;
60464;SDS011;46314;52.392;9.758;2023-11-19T06:14:07;16.67;;;9.38;;
60464;SDS011;46314;52.392;9.758;2023-11-19T06:16:34;11.45;;;7.65;;
60464;SDS011;46314;52.392;9.758;2023-11-19T06:19:00;12.52;;;8.32;;
60464;SDS011;46314;52.392;9.758;2023-11-19T06:21:27;17.63;;;9.00;;
60464;SDS011;46314;52.392;9.758;2023-11-19T06:23:54;12.48;;;7.60;;
60464;SDS011;46314;52.392;9.758;2023-11-19T06:26:20;13.02;;;8.45;;
60464;SDS011;46314;52.392;9.758;2023-11-19T06:28:48;13.15;;;7.75;;
60464;SDS011;46314;52.392;9.758;2023-11-19T06:31:15;12.30;;;7.78;;
60464;SDS011;46314;52.392;9.758;2023-11-19T06:33:41;12.80;;;7.78;;
60464;SDS011;46314;52.392;9.758;2023-11-19T06:36:08;14.13;;;8.32;;
60464;SDS011;46314;52.392;9.758;2023-11-19T06:38:35;17.15;;;8.23;;
60464;SDS011;46314;52.392;9.758;2023-11-19T06:41:01;16.88;;;7.95;;
60464;SDS011;46314;52.392;9.758;2023-11-19T06:43:28;12.60;;;7.00;;
60464;SDS011;46314;52.392;9.758;2023-11-19T06:46:15;21.83;;;7.95;;
60464;SDS011;46314;52.392;9.758;2023-11-19T06:48:42;18.95;;;7.28;;
60464;SDS011;46314;52.392;9.758;2023-11-19T06:51:09;17.52;;;6.22;;
60464;SDS011;46314;52.392;9.758;2023-11-19T06:53:35;20.55;;;7.25;;
60464;SDS011;46314;52.392;9.758;2023-11-19T06:56:02;13.77;;;6.00;;
60464;SDS011;46314;52.392;9.758;2023-11-19T06:58:28;14.10;;;6.05;;
60464;SDS011;46314;52.392;9.758;2023-11-19T07:00:55;18.48;;;6.03;;
60464;SDS011;46314;52.392;9.758;2023-11-19T07:03:23;15.55;;;7.03;;
60464;SDS011;46314;52.392;9.758;2023-11-19T07:05:49;13.88;;;5.55;;
60464;SDS011;46314;52.392;9.758;2023-11-19T07:08:16;17.33;;;5.82;;
60464;SDS011;46314;52.392;9.758;2023-11-19T07:10:42;18.00;;;6.60;;
60464;SDS011;46314;52.392;9.758;2023-11-19T07:13:09;11.63;;;5.03;;
60464;SDS011;46314;52.392;9.758;2023-11-19T07:15:35;13.07;;;6.35;;
60464;SDS011;46314;52.392;9.758;2023-11-19T07:18:02;16.95;;;6.35;;
60464;SDS011;46314;52.392;9.758;2023-11-19T07:20:30;14.98;;;5.70;;
60464;SDS011;46314;52.392;9.758;2023-11-19T07:22:56;17.70;;;5.20;;
60464;SDS011;46314;52.392;9.758;2023-11-19T07:25:24;12.98;;;5.20;;
60464;SDS011;46314;52.392;9.758;2023-11-19T07:27:51;14.10;;;5.97;;
60464;SDS011;46314;52.392;9.758;2023-11-19T07:30:17;15.75;;;5.65;;
60464;SDS011;46314;52.392;9.758;2023-11-19T07:32:45;15.55;;;5.25;;
60464;SDS011;46314;52.392;9.758;2023-11-19T07:35:11;14.90;;;5.38;;
60464;SDS011;46314;52.392;9.758;2023-11-19T07:37:39;20.33;;;6.18;;
60464;SDS011;46314;52.392;9.758;2023-11-19T07:40:06;18.25;;;5.55;;
60464;SDS011;46314;52.392;9.758;2023-11-19T07:42:33;19.45;;;5.40;;
60464;SDS011;46314;52.392;9.758;2023-11-19T07:45:00;17.70;;;4.97;;
60464;SDS011;46314;52.392;9.758;2023-11-19T07:47:26;19.02;;;5.60;;
60464;SDS011;46314;52.392;9.758;2023-11-19T07:49:53;21.35;;;5.18;;
60464;SDS011;46314;52.392;9.758;2023-11-19T07:52:19;20.90;;;6.00;;
60464;SDS011;46314;52.392;9.758;2023-11-19T07:54:49;20.88;;;6.00;;
60464;SDS011;46314;52.392;9.758;2023-11-19T07:57:15;26.80;;;5.53;;
60464;SDS011;46314;52.392;9.758;2023-11-19T07:59:42;24.08;;;5.93;;
60464;SDS011;46314;52.392;9.758;2023-11-19T08:02:08;23.05;;;7.00;;
60464;SDS011;46314;52.392;9.758;2023-11-19T08:04:35;24.02;;;7.57;;
60464;SDS011;46314;52.392;9.758;2023-11-19T08:07:01;18.90;;;5.78;;
60464;SDS011;46314;52.392;9.758;2023-11-19T08:09:28;22.85;;;5.90;;
60464;SDS011;46314;52.392;9.758;2023-11-19T08:11:56;21.92;;;5.53;;
60464;SDS011;46314;52.392;9.758;2023-11-19T08:14:22;24.60;;;6.10;;
60464;SDS011;46314;52.392;9.758;2023-11-19T08:16:49;22.27;;;5.47;;
60464;SDS011;46314;52.392;9.758;2023-11-19T08:19:15;19.33;;;5.05;;
60464;SDS011;46314;52.392;9.758;2023-11-19T08:21:42;18.33;;;5.30;;
60464;SDS011;46314;52.392;9.758;2023-11-19T08:24:08;18.15;;;6.10;;
60464;SDS011;46314;52.392;9.758;2023-11-19T08:26:35;22.40;;;5.82;;
60464;SDS011;46314;52.392;9.758;2023-11-19T08:29:03;20.30;;;7.28;;
60464;SDS011;46314;52.392;9.758;2023-11-19T08:31:29;22.38;;;6.45;;
60464;SDS011;46314;52.392;9.758;2023-11-19T08:33:56;19.02;;;7.13;;
60464;SDS011;46314;52.392;9.758;2023-11-19T08:36:23;28.77;;;6.57;;
60464;SDS011;46314;52.392;9.758;2023-11-19T08:38:49;17.80;;;6.43;;
60464;SDS011;46314;52.392;9.758;2023-11-19T08:41:16;22.00;;;6.88;;
60464;SDS011;46314;52.392;9.758;2023-11-19T08:43:42;27.80;;;7.35;;
60464;SDS011;46314;52.392;9.758;2023-11-19T08:46:11;22.38;;;6.43;;
60464;SDS011;46314;52.392;9.758;2023-11-19T08:48:37;16.45;;;5.57;;
60464;SDS011;46314;52.392;9.758;2023-11-19T08:51:04;21.08;;;6.32;;
60464;SDS011;46314;52.392;9.758;2023-11-19T08:53:31;24.17;;;6.80;;
60464;SDS011;46314;52.392;9.758;2023-11-19T08:55:58;23.05;;;7.68;;
60464;SDS011;46314;52.392;9.758;2023-11-19T08:58:24;23.00;;;6.45;;
60464;SDS011;46314;52.392;9.758;2023-11-19T09:00:51;22.25;;;6.18;;
60464;SDS011;46314;52.392;9.758;2023-11-19T09:03:18;21.77;;;6.07;;
60464;SDS011;46314;52.392;9.758;2023-11-19T09:05:45;18.70;;;5.93;;
60464;SDS011;46314;52.392;9.758;2023-11-19T09:08:12;21.60;;;7.93;;
60464;SDS011;46314;52.392;9.758;2023-11-19T09:10:38;18.75;;;6.53;;
60464;SDS011;46314;52.392;9.758;2023-11-19T09:13:05;23.58;;;6.25;;
60464;SDS011;46314;52.392;9.758;2023-11-19T09:15:31;21.83;;;6.78;;
60464;SDS011;46314;52.392;9.758;2023-11-19T09:17:58;23.92;;;6.38;;
60464;SDS011;46314;52.392;9.758;2023-11-19T09:20:26;26.27;;;6.80;;
60464;SDS011;46314;52.392;9.758;2023-11-19T09:22:52;22.77;;;8.15;;
60464;SDS011;46314;52.392;9.758;2023-11-19T09:25:18;22.73;;;7.18;;
60464;SDS011;46314;52.392;9.758;2023-11-19T09:27:45;23.00;;;6.38;;
60464;SDS011;46314;52.392;9.758;2023-11-19T09:30:12;27.20;;;7.00;;
60464;SDS011;46314;52.392;9.758;2023-11-19T09:32:39;19.95;;;6.70;;
60464;SDS011;46314;52.392;9.758;2023-11-19T09:35:06;26.48;;;6.32;;
60464;SDS011;46314;52.392;9.758;2023-11-19T09:37:35;26.05;;;7.55;;
60464;SDS011;46314;52.392;9.758;2023-11-19T09:40:01;29.25;;;7.88;;
60464;SDS011;46314;52.392;9.758;2023-11-19T09:42:28;27.52;;;6.88;;
60464;SDS011;46314;52.392;9.758;2023-11-19T09:44:55;17.60;;;6.32;;
60464;SDS011;46314;52.392;9.758;2023-11-19T09:47:24;25.40;;;7.18;;
60464;SDS011;46314;52.392;9.758;2023-11-19T09:49:52;23.23;;;6.85;;
60464;SDS011;46314;52.392;9.758;2023-11-19T09:52:20;25.23;;;7.40;;
60464;SDS011;46314;52.392;9.758;2023-11-19T09:54:48;24.55;;;8.00;;
60464;SDS011;46314;52.392;9.758;2023-11-19T09:57:15;26.05;;;6.70;;
60464;SDS011;46314;52.392;9.758;2023-11-19T09:59:43;25.77;;;8.45;;
60464;SDS011;46314;52.392;9.758;2023-11-19T10:02:10;29.52;;;7.57;;
60464;SDS011;46314;52.392;9.758;2023-11-19T10:04:38;26.85;;;7.80;;
60464;SDS011;46314;52.392;9.758;2023-11-19T10:07:08;24.02;;;6.22;;
60464;SDS011;46314;52.392;9.758;2023-11-19T10:09:34;27.10;;;7.72;;
60464;SDS011;46314;52.392;9.758;2023-11-19T10:12:02;24.33;;;6.85;;
60464;SDS011;46314;52.392;9.758;2023-11-19T10:14:29;22.05;;;6.43;;
60464;SDS011;46314;52.392;9.758;2023-11-19T10:16:57;22.98;;;6.68;;
60464;SDS011;46314;52.392;9.758;2023-11-19T10:19:23;21.13;;;7.32;;
60464;SDS011;46314;52.392;9.758;2023-11-19T10:21:50;23.67;;;7.07;;
60464;SDS011;46314;52.392;9.758;2023-11-19T10:24:17;24.25;;;6.68;;
60464;SDS011;46314;52.392;9.758;2023-11-19T10:26:57;21.75;;;7.18;;
60464;SDS011;46314;52.392;9.758;2023-11-19T10:29:26;25.73;;;6.80;;
60464;SDS011;46314;52.392;9.758;2023-11-19T10:31:55;29.27;;;6.82;;
60464;SDS011;46314;52.392;9.758;2023-11-19T10:34:24;26.77;;;7.05;;
60464;SDS011;46314;52.392;9.758;2023-11-19T10:36:51;24.55;;;6.45;;
60464;SDS011;46314;52.392;9.758;2023-11-19T10:39:18;26.40;;;6.38;;
60464;SDS011;46314;52.392;9.758;2023-11-19T10:41:45;19.65;;;6.40;;
60464;SDS011;46314;52.392;9.758;2023-11-19T10:44:11;25.90;;;6.32;;
60464;SDS011;46314;52.392;9.758;2023-11-19T10:46:40;27.42;;;6.75;;
60464;SDS011;46314;52.392;9.758;2023-11-19T10:49:08;19.50;;;5.95;;
60464;SDS011;46314;52.392;9.758;2023-11-19T10:51:35;25.00;;;5.47;;
60464;SDS011;46314;52.392;9.758;2023-11-19T10:54:02;21.20;;;5.47;;
60464;SDS011;46314;52.392;9.758;2023-11-19T10:56:29;20.33;;;6.35;;
60464;SDS011;46314;52.392;9.758;2023-11-19T10:58:57;21.50;;;6.45;;
60464;SDS011;46314;52.392;9.758;2023-11-19T11:01:26;23.27;;;5.95;;
60464;SDS011;46314;52.392;9.758;2023-11-19T11:03:58;23.15;;;7.57;;
60464;SDS011;46314;52.392;9.758;2023-11-19T11:06:26;29.30;;;7.03;;
60464;SDS011;46314;52.392;9.758;2023-11-19T11:08:53;26.80;;;7.15;;
60464;SDS011;46314;52.392;9.758;2023-11-19T11:11:20;22.23;;;7.00;;
60464;SDS011;46314;52.392;9.758;2023-11-19T11:13:47;25.88;;;7.22;;
60464;SDS011;46314;52.392;9.758;2023-11-19T11:16:16;23.73;;;7.10;;
60464;SDS011;46314;52.392;9.758;2023-11-19T11:18:45;20.42;;;6.05;;
60464;SDS011;46314;52.392;9.758;2023-11-19T11:21:15;22.08;;;6.78;;
60464;SDS011;46314;52.392;9.758;2023-11-19T11:23:50;24.63;;;6.43;;
60464;SDS011;46314;52.392;9.758;2023-11-19T11:26:43;27.55;;;7.25;;
60464;SDS011;46314;52.392;9.758;2023-11-19T11:32:01;21.45;;;6.38;;
60464;SDS011;46314;52.392;9.758;2023-11-19T11:34:46;24.88;;;7.20;;
60464;SDS011;46314;52.392;9.758;2023-11-19T11:37:25;23.33;;;7.07;;
60464;SDS011;46314;52.392;9.758;2023-11-19T11:39:57;24.08;;;7.53;;
60464;SDS011;46314;52.392;9.758;2023-11-19T11:42:33;20.77;;;6.43;;
60464;SDS011;46314;52.392;9.758;2023-11-19T11:45:01;26.48;;;7.60;;
60464;SDS011;46314;52.392;9.758;2023-11-19T11:50:31;21.10;;;5.82;;
60464;SDS011;46314;52.392;9.758;2023-11-19T11:53:14;26.20;;;7.05;;
60464;SDS011;46314;52.392;9.758;2023-11-19T11:58:31;20.77;;;7.40;;
60464;SDS011;46314;52.392;9.758;2023-11-19T12:00:59;17.58;;;6.03;;
60464;SDS011;46314;52.392;9.758;2023-11-19T12:03:28;23.08;;;6.57;;
60464;SDS011;46314;52.392;9.758;2023-11-19T12:05:56;21.98;;;6.50;;
60464;SDS011;46314;52.392;9.758;2023-11-19T12:08:26;26.17;;;7.00;;
60464;SDS011;46314;52.392;9.758;2023-11-19T12:10:54;26.77;;;6.95;;
60464;SDS011;46314;52.392;9.758;2023-11-19T12:13:22;25.88;;;6.55;;
60464;SDS011;46314;52.392;9.758;2023-11-19T12:18:33;26.17;;;7.53;;
60464;SDS011;46314;52.392;9.758;2023-11-19T12:21:00;18.98;;;5.55;;
60464;SDS011;46314;52.392;9.758;2023-11-19T12:23:29;21.73;;;7.28;;
60464;SDS011;46314;52.392;9.758;2023-11-19T12:25:56;20.67;;;6.32;;
60464;SDS011;46314;52.392;9.758;2023-11-19T12:28:23;31.42;;;6.65;;
60464;SDS011;46314;52.392;9.758;2023-11-19T12:30:50;24.70;;;7.45;;
60464;SDS011;46314;52.392;9.758;2023-11-19T12:33:16;28.35;;;7.47;;
60464;SDS011;46314;52.392;9.758;2023-11-19T12:35:43;32.92;;;8.38;;
60464;SDS011;46314;52.392;9.758;2023-11-19T12:38:17;23.45;;;6.10;;
60464;SDS011;46314;52.392;9.758;2023-11-19T12:40:46;19.85;;;7.18;;
60464;SDS011;46314;52.392;9.758;2023-11-19T12:43:21;19.92;;;6.07;;
60464;SDS011;46314;52.392;9.758;2023-11-19T12:45:48;19.45;;;6.63;;
60464;SDS011;46314;52.392;9.758;2023-11-19T12:48:14;27.35;;;8.50;;
60464;SDS011;46314;52.392;9.758;2023-11-19T12:50:50;21.13;;;5.82;;
60464;SDS011;46314;52.392;9.758;2023-11-19T12:53:17;22.15;;;7.43;;
60464;SDS011;46314;52.392;9.758;2023-11-19T12:55:43;22.08;;;7.05;;
60464;SDS011;46314;52.392;9.758;2023-11-19T12:58:11;15.60;;;5.28;;
60464;SDS011;46314;52.392;9.758;2023-11-19T13:00:58;20.42;;;6.07;;
60464;SDS011;46314;52.392;9.758;2023-11-19T13:03:29;17.77;;;5.35;;
60464;SDS011;46314;52.392;9.758;2023-11-19T13:06:00;14.45;;;4.95;;
60464;SDS011;46314;52.392;9.758;2023-11-19T13:08:28;23.90;;;6.32;;
60464;SDS011;46314;52.392;9.758;2023-11-19T13:10:54;18.30;;;5.85;;
60464;SDS011;46314;52.392;9.758;2023-11-19T13:13:22;15.73;;;4.95;;
60464;SDS011;46314;52.392;9.758;2023-11-19T13:15:48;22.38;;;6.55;;
60464;SDS011;46314;52.392;9.758;2023-11-19T13:18:15;15.55;;;5.45;;
60464;SDS011;46314;52.392;9.758;2023-11-19T13:20:42;19.70;;;6.15;;
60464;SDS011;46314;52.392;9.758;2023-11-19T13:23:09;28.48;;;7.43;;
60464;SDS011;46314;52.392;9.758;2023-11-19T13:25:35;17.90;;;5.97;;
60464;SDS011;46314;52.392;9.758;2023-11-19T13:28:02;13.05;;;5.78;;
60464;SDS011;46314;52.392;9.758;2023-11-19T13:30:30;21.38;;;4.85;;
60464;SDS011;46314;52.392;9.758;2023-11-19T13:32:57;16.10;;;5.00;;
60464;SDS011;46314;52.392;9.758;2023-11-19T13:35:24;14.98;;;6.18;;
60464;SDS011;46314;52.392;9.758;2023-11-19T13:37:50;21.35;;;6.57;;
60464;SDS011;46314;52.392;9.758;2023-11-19T13:40:18;17.00;;;5.93;;
60464;SDS011;46314;52.392;9.758;2023-11-19T13:42:44;22.70;;;6.85;;
60464;SDS011;46314;52.392;9.758;2023-11-19T13:45:11;24.27;;;6.50;;
60464;SDS011;46314;52.392;9.758;2023-11-19T13:47:40;28.70;;;7.03;;
60464;SDS011;46314;52.392;9.758;2023-11-19T13:50:08;20.42;;;7.00;;
60464;SDS011;46314;52.392;9.758;2023-11-19T13:52:36;26.13;;;8.00;;
60464;SDS011;46314;52.392;9.758;2023-11-19T13:55:03;21.88;;;7.13;;
60464;SDS011;46314;52.392;9.758;2023-11-19T13:57:30;19.15;;;6.82;;
60464;SDS011;46314;52.392;9.758;2023-11-19T13:59:56;26.38;;;6.97;;
60464;SDS011;46314;52.392;9.758;2023-11-19T14:02:23;20.15;;;6.97;;
60464;SDS011;46314;52.392;9.758;2023-11-19T14:04:51;22.02;;;6.82;;
60464;SDS011;46314;52.392;9.758;2023-11-19T14:07:17;23.80;;;6.40;;
60464;SDS011;46314;52.392;9.758;2023-11-19T14:09:44;18.65;;;6.65;;
60464;SDS011;46314;52.392;9.758;2023-11-19T14:12:11;19.10;;;6.32;;
60464;SDS011;46314;52.392;9.758;2023-11-19T14:14:37;26.42;;;7.32;;
60464;SDS011;46314;52.392;9.758;2023-11-19T14:17:04;19.23;;;6.30;;
60464;SDS011;46314;52.392;9.758;2023-11-19T14:19:33;22.65;;;6.63;;
60464;SDS011;46314;52.392;9.758;2023-11-19T14:22:01;18.85;;;6.57;;
60464;SDS011;46314;52.392;9.758;2023-11-19T14:24:28;19.73;;;5.05;;
60464;SDS011;46314;52.392;9.758;2023-11-19T14:26:54;16.92;;;6.18;;
60464;SDS011;46314;52.392;9.758;2023-11-19T14:29:21;26.77;;;6.75;;
60464;SDS011;46314;52.392;9.758;2023-11-19T14:31:47;21.15;;;6.03;;
60464;SDS011;46314;52.392;9.758;2023-11-19T14:34:14;21.08;;;5.60;;
60464;SDS011;46314;52.392;9.758;2023-11-19T14:36:40;23.25;;;6.47;;
60464;SDS011;46314;52.392;9.758;2023-11-19T14:39:08;18.42;;;5.95;;
60464;SDS011;46314;52.392;9.758;2023-11-19T14:41:35;24.15;;;6.88;;
60464;SDS011;46314;52.392;9.758;2023-11-19T14:44:01;23.38;;;6.57;;
60464;SDS011;46314;52.392;9.758;2023-11-19T14:46:28;20.83;;;6.38;;
60464;SDS011;46314;52.392;9.758;2023-11-19T14:48:55;19.52;;;6.00;;
60464;SDS011;46314;52.392;9.758;2023-11-19T14:51:21;23.40;;;8.23;;
60464;SDS011;46314;52.392;9.758;2023-11-19T14:53:48;15.88;;;4.78;;